Flight Track Log - Related Links

Times and Time Zones

All times are in EDT time to prevent confusion due to time zone crossing. See the SWA864 flight status page for this flight to view local times or setup timezone preferences in your user account.

Time Position Orientation Groundspeed Altitude Reporting Facility
EDT Latitude Longitude Course Direction KTS MPH feet Rate Location/Type
Sat 01:41:47 PM 39.8833 -104.6000 173° South 177 204 6,800  Level Denver TRACON
Sat 01:42:47 PM 39.8500 -104.5167 117° Southeast 246 283 8,900 2,100 Climbing Denver TRACON
Sat 01:43:47 PM 39.7667 -104.5167 180° South 314 361 11,000 2,416 Climbing Denver TRACON
Sat 01:44:04 PM 39.7406 -104.5164 180° South 313 360 12,000 3,692 Climbing Denver Center
Sat 01:45:05 PM 39.6450 -104.5064 175° South 340 391 15,800 3,561 Climbing Denver Center
Sat 01:46:07 PM 39.5467 -104.4961 175° South 352 405 19,300 2,868 Climbing Denver Center
Sat 01:47:00 PM 39.2799 -104.4855 173° South  Level FlightAware Approximate
Sat 01:47:21 PM 39.4394 -104.4872 176° South 357 411 22,300  Level Denver Center
Sat 01:48:23 PM 39.3114 -104.4750 176° South 377 434 25,000 2,323 Climbing Denver Center
Sat 01:49:25 PM 39.2053 -104.4644 176° South 382 440 27,100 1,839 Climbing Denver Center
Sat 01:50:27 PM 39.0972 -104.4508 174° South 389 448 28,800 1,790 Climbing Denver Center
Sat 01:51:29 PM 38.9744 -104.4142 167° South 404 465 30,800 1,984 Climbing Denver Center
Sat 01:52:31 PM 38.8750 -104.3567 156° South 410 472 32,900 2,081 Climbing Denver Center
Sat 01:53:33 PM 38.7681 -104.2728 149° Southeast 405 466 35,100 1,790 Climbing Denver Center
Sat 01:54:35 PM 38.6764 -104.2047 150° Southeast 399 459 36,600 919 Climbing Denver Center
Sat 01:55:37 PM 38.5853 -104.1336 149° Southeast 399 459 37,000 176 Climbing Denver Center
Sat 01:56:51 PM 38.4772 -104.0522 149° Southeast 402 463 37,000 397 Level Denver Center
Sat 01:57:53 PM 38.3542 -103.9578 149° Southeast 403 464 37,900 919 Climbing Denver Center
Sat 01:58:55 PM 38.2603 -103.8867 149° Southeast 407 468 38,900 532 Climbing Denver Center
Sat 01:59:57 PM 38.1494 -103.8033 149° Southeast 412 474 39,000 49 Climbing Denver Center
Sat 02:00:58 PM 38.0694 -103.7431 149° Southeast 415 478 39,000  Level Denver Center
Sat 02:02:01 PM 37.9597 -103.6603 149° Southeast 409 471 39,000  Level Denver Center
Sat 02:03:15 PM 37.8500 -103.5778 149° Southeast 409 471 39,000  Level Denver Center
Sat 02:04:17 PM 37.7394 -103.4953 149° Southeast 409 471 39,000  Level Denver Center
Sat 02:05:19 PM 37.6272 -103.4114 149° Southeast 414 476 39,000  Level Denver Center
Sat 02:06:21 PM 37.5319 -103.3400 149° Southeast 414 476 39,000  Level Denver Center
Sat 02:07:23 PM 37.4208 -103.2581 150° Southeast 413 475 39,000  Level Denver Center
Sat 02:08:22 PM 37.3261 -103.1883 150° Southeast 412 474 39,000  Level Albuquerque Center
Sat 02:09:23 PM 37.2306 -103.1203 150° Southeast 411 473 39,000  Level Albuquerque Center
Sat 02:10:25 PM 37.1183 -103.0378 150° Southeast 415 478 39,000  Level Albuquerque Center
Sat 02:11:27 PM 37.0228 -102.9694 150° Southeast 413 475 39,000  Level Albuquerque Center
Sat 02:12:29 PM 36.9128 -102.8894 150° Southeast 409 471 39,000  Level Albuquerque Center
Sat 02:13:30 PM 36.8178 -102.8186 149° Southeast 413 475 39,000  Level Albuquerque Center
Sat 02:14:32 PM 36.7231 -102.7494 150° Southeast 412 474 39,000  Level Albuquerque Center
Sat 02:15:34 PM 36.6228 -102.6781 150° Southeast 416 479 39,000  Level Albuquerque Center
Sat 02:16:35 PM 36.5006 -102.5900 150° Southeast 422 486 39,000  Level Albuquerque Center
Sat 02:17:37 PM 36.3989 -102.5172 150° Southeast 423 487 39,000  Level Albuquerque Center
Sat 02:18:40 PM 36.2969 -102.4431 150° Southeast 424 488 39,000  Level Albuquerque Center
Sat 02:19:40 PM 36.1947 -102.3714 150° Southeast 423 487 39,000  Level Albuquerque Center
Sat 02:20:42 PM 36.0922 -102.3000 151° Southeast 424 488 39,000  Level Albuquerque Center
Sat 02:21:44 PM 35.9894 -102.2253 150° Southeast 426 490 39,000  Level Albuquerque Center
Sat 02:22:45 PM 35.8861 -102.1528 150° Southeast 427 491 39,000  Level Albuquerque Center
Sat 02:23:47 PM 35.7608 -102.0650 150° Southeast 431 496 39,000  Level Albuquerque Center
Sat 02:24:48 PM 35.6556 -101.9922 151° Southeast 433 498 39,000  Level Albuquerque Center
Sat 02:25:50 PM 35.5519 -101.9189 150° Southeast 431 496 39,000  Level Albuquerque Center
Sat 02:26:52 PM 35.4553 -101.8503 150° Southeast 431 496 39,000  Level Albuquerque Center
Sat 02:27:53 PM 35.3531 -101.7756 149° Southeast 426 490 39,000  Level Albuquerque Center
Sat 02:28:55 PM 35.2233 -101.6894 152° Southeast 437 503 39,000  Level Albuquerque Center
Sat 02:29:57 PM 35.1294 -101.6247 151° Southeast 439 505 39,000  Level Albuquerque Center
Sat 02:30:58 PM 35.0247 -101.5514 150° Southeast 436 502 39,000  Level Albuquerque Center
Sat 02:32:00 PM 34.9058 -101.4694 151° Southeast 445 512 39,000  Level Albuquerque Center
Sat 02:33:01 PM 34.7997 -101.3961 150° Southeast 442 509 39,000  Level Albuquerque Center
Sat 02:34:03 PM 34.6925 -101.3247 151° Southeast 440 506 39,000  Level Albuquerque Center
Sat 02:35:05 PM 34.5864 -101.2511 150° Southeast 440 506 39,000  Level Albuquerque Center
Sat 02:36:06 PM 34.4600 -101.1650 151° Southeast 436 502 39,000  Level Albuquerque Center
Sat 02:37:08 PM 34.3539 -101.0967 152° Southeast 434 499 39,000  Level Albuquerque Center
Sat 02:38:09 PM 34.2500 -101.0228 150° Southeast 433 498 39,000  Level Albuquerque Center
Sat 02:39:11 PM 34.1447 -100.9536 151° Southeast 432 497 39,000  Level Albuquerque Center
Sat 02:40:12 PM 34.0381 -100.8839 152° Southeast 434 499 39,000  Level Albuquerque Center
Sat 02:41:14 PM 33.9319 -100.8131 151° Southeast 436 502 39,000  Level Albuquerque Center
Sat 02:42:10 PM 33.8283 -100.7439 151° Southeast 432 497 39,000  Level Fort Worth Center
Sat 02:43:10 PM 33.7217 -100.6750 152° Southeast 432 497 39,000  Level Fort Worth Center
Sat 02:44:10 PM 33.6172 -100.6036 150° Southeast 432 497 39,000  Level Fort Worth Center
Sat 02:45:10 PM 33.5106 -100.5325 151° Southeast 432 497 39,000  Level Fort Worth Center
Sat 02:46:10 PM 33.4017 -100.4614 151° Southeast 432 497 39,000  Level Fort Worth Center
Sat 02:47:10 PM 33.2947 -100.3908 151° Southeast 432 497 39,000  Level Fort Worth Center
Sat 02:48:10 PM 33.1878 -100.3225 152° Southeast 432 497 39,000 -400 Level Fort Worth Center
Sat 02:49:10 PM 33.0808 -100.2522 151° Southeast 432 497 38,200 -850 Descending Fort Worth Center
Sat 02:50:10 PM 32.9739 -100.1819 151° Southeast 432 497 37,300 -600 Descending Fort Worth Center
Sat 02:51:10 PM 32.8669 -100.1142 152° Southeast 432 497 37,000 -150 Descending Fort Worth Center
Sat 02:52:10 PM 32.7597 -100.0492 153° Southeast 427 491 37,000  Level Fort Worth Center
Sat 02:53:10 PM 32.6528 -99.9744 150° Southeast 416 479 37,000  Level Fort Worth Center
Sat 02:54:10 PM 32.5269 -99.8972 153° Southeast 466 536 37,000  Level Fort Worth Center
Sat 02:55:10 PM 32.4197 -99.8325 153° Southeast 451 519 37,000  Level Fort Worth Center
Sat 02:56:10 PM 32.3122 -99.7756 156° South 437 503 37,000  Level Fort Worth Center
Sat 02:57:10 PM 32.2006 -99.7186 157° South 437 503 37,000 -450 Level Fort Worth Center
Sat 02:58:10 PM 32.0931 -99.6619 156° South 437 503 36,100 -1,300 Descending Fort Worth Center
Sat 02:59:10 PM 31.9853 -99.6056 156° South 432 497 34,400 -1,700 Descending Fort Worth Center
Sat 03:00:10 PM 31.8736 -99.5467 156° South 432 497 32,700 -1,586 Descending Fort Worth Center
Sat 03:02:04 PM 31.6692 -99.4436 157° South 443 510 29,800 -1,261 Descending Houston Center
Sat 03:03:06 PM 31.5519 -99.3836 156° South 454 522 29,000 -387 Descending Houston Center
Sat 03:04:08 PM 31.4353 -99.3239 156° South 453 521 29,000 -435 Level Houston Center
Sat 03:05:10 PM 31.3114 -99.2617 157° South 449 517 28,100 -968 Descending Houston Center
Sat 03:06:12 PM 31.2094 -99.2097 156° South 416 479 27,000 -1,073 Descending Houston Center
Sat 03:07:13 PM 31.0992 -99.1539 157° South 396 456 25,900 -1,024 Descending Houston Center
Sat 03:08:15 PM 31.0019 -99.1039 156° South 381 438 24,900 -968 Descending Houston Center
Sat 03:09:17 PM 30.9042 -99.0550 157° South 379 436 23,900 -1,210 Descending Houston Center
Sat 03:10:19 PM 30.8064 -99.0058 157° South 380 437 22,400 -1,645 Descending Houston Center
Sat 03:11:21 PM 30.7128 -98.9583 156° South 368 423 20,500 -1,839 Descending Houston Center
Sat 03:12:23 PM 30.6222 -98.9133 157° South 356 410 18,600 -1,790 Descending Houston Center
Sat 03:13:25 PM 30.5364 -98.8694 156° South 341 392 16,800 -1,707 Descending Houston Center
Sat 03:14:26 PM 30.4503 -98.8278 157° South 333 383 15,100 -1,854 Descending Houston Center
Sat 03:15:28 PM 30.3531 -98.7792 157° South 326 375 13,000 -1,839 Descending Houston Center
Sat 03:16:30 PM 30.2706 -98.7372 156° South 319 367 11,300 -1,452 Descending Houston Center
Sat 03:17:32 PM 30.1897 -98.7031 160° South 311 358 10,000 -581 Descending Houston Center
Sat 03:18:34 PM 30.0997 -98.7181 188° South 299 344 10,100 -195 Climbing Houston Center
Sat 03:19:35 PM 30.0178 -98.7278 186° South 296 341 9,600 -701 Descending Houston Center
Sat 03:19:51 PM 29.9942 -98.7303 185° South 294 338 9,200 -1,355 Descending Houston Center
Sat 03:20:37 PM 29.9339 -98.7328 182° South 281 323 8,200 -1,222 Descending Houston Center
Sat 03:21:39 PM 29.8608 -98.7092 164° South 271 312 7,000 -1,220 Descending Houston Center
Sat 03:22:40 PM 29.7933 -98.6908 167° South 251 289 5,700 -1,415 Descending Houston Center
Sat 03:23:42 PM 29.7239 -98.6714 166° South 240 276 4,100 -1,161 Descending Houston Center
Sat 03:24:44 PM 29.6661 -98.6453 159° South 224 258 3,300 -846 Descending Houston Center
Sat 03:25:00 PM 29.6556 -98.6306 130° Southeast 210 242 3,000 -295 Descending Houston Center
Sat 03:25:45 PM 29.6319 -98.5994 131° Southeast 193 222 3,000 -98 Level Houston Center
Sat 03:26:01 PM 29.6247 -98.5911 135° Southeast 154 177 2,900 -387 Descending Houston Center
Sat 03:26:47 PM 29.6033 -98.5631 131° Southeast 150 173 2,600 -590 Descending Houston Center
Sat 03:27:02 PM 29.5986 -98.5581 137° Southeast 131 151 2,300 -677 Descending Houston Center
Sat 03:27:49 PM 29.5783 -98.5303 130° Southeast 138 159 1,900 -611 Descending Houston Center
Sat 03:28:50 PM 29.5525 -98.4950 130° Southeast 136 157 1,200 -689 Descending Houston Center
Sat 03:31:00 PM 29.5333 -98.4667 120° Southeast  Level FlightAware Approximate
Sat 03:38:00 PM 29.5340 -98.4691 120° Southeast  Level Estimated
Sat 03:39:00 PM 29.5333 -98.4667 120° Southeast  Level FlightAware Approximate

Login

Don't have an account? Register now (free) for customized features, flight alerts, and more!